createdAt,value
2019-03-04T00:01:32.974Z,98278.07
2019-03-04T00:04:02.206Z,98278.07
2019-03-04T00:06:31.726Z,98272.02
2019-03-04T00:09:01.244Z,98271.63
2019-03-04T00:11:30.849Z,98260.66
2019-03-04T00:14:00.039Z,98280.72
2019-03-04T00:16:29.277Z,98265.27
2019-03-04T00:18:58.484Z,98275.52
2019-03-04T00:21:28.049Z,98259.23
2019-03-04T00:23:57.279Z,98264.06
2019-03-04T00:26:26.826Z,98254.96
2019-03-04T00:28:56.303Z,98243.98
2019-03-04T00:31:25.521Z,98246.73
2019-03-04T00:33:54.718Z,98218.89
2019-03-04T00:36:23.986Z,98214.16
2019-03-04T00:38:53.564Z,98214.65
2019-03-04T00:41:23.058Z,98201.96
2019-03-04T00:43:52.282Z,98207.85
2019-03-04T00:46:21.521Z,98196.94
2019-03-04T00:48:50.785Z,98156.66
2019-03-04T00:51:20.374Z,98114.91
2019-03-04T00:53:49.911Z,98119.31
2019-03-04T00:56:19.170Z,98114.09
2019-03-04T00:58:48.645Z,98118.05
2019-03-04T01:01:38.633Z,98107.50
2019-03-04T01:04:07.846Z,98098.98
2019-03-04T01:06:37.130Z,98114.45
2019-03-04T01:15:02.119Z,98097.63
2019-03-04T01:17:31.339Z,98101.64
2019-03-04T01:20:00.573Z,98109.50
2019-03-04T01:22:30.143Z,98052.64
2019-03-04T01:24:59.813Z,98068.39
2019-03-04T01:27:29.090Z,98049.05
2019-03-04T01:29:58.349Z,98042.97
2019-03-04T01:32:30.248Z,98013.02
2019-03-04T01:34:59.495Z,98002.84
2019-03-04T01:37:28.743Z,98016.84
2019-03-04T01:39:58.554Z,98016.96
2019-03-04T01:45:42.603Z,98070.13
2019-03-04T01:48:12.120Z,98053.69
2019-03-04T01:50:41.305Z,98046.63
2019-03-04T01:53:10.582Z,98012.97
2019-03-04T01:55:39.792Z,97986.48
2019-03-04T01:58:08.888Z,97979.95
2019-03-04T02:00:38.136Z,97931.82
2019-03-04T02:03:07.650Z,97965.48
2019-03-04T02:05:57.365Z,97964.52
2019-03-04T02:08:26.966Z,97985.05
2019-03-04T02:10:56.613Z,97994.27
2019-03-04T02:16:14.011Z,97994.81
2019-03-04T02:18:43.229Z,97982.11
2019-03-04T02:21:12.429Z,97962.91
2019-03-04T02:24:21.399Z,97937.33
2019-03-04T02:26:50.611Z,97928.78
2019-03-04T02:29:20.124Z,97904.31
2019-03-04T02:31:49.358Z,97915.26
2019-03-04T02:34:18.628Z,97926.69
2019-03-04T02:36:47.819Z,97914.86
2019-03-04T02:39:17.365Z,97945.02
2019-03-04T02:41:46.669Z,97945.56
2019-03-04T02:44:15.937Z,97939.65
2019-03-04T02:49:33.407Z,97958.68
2019-03-04T02:52:02.638Z,97962.91
2019-03-04T02:54:31.904Z,97946.11
2019-03-04T02:57:01.115Z,97903.98
2019-03-04T02:59:30.376Z,97905.56
2019-03-04T03:01:59.607Z,97897.74
2019-03-04T03:04:28.840Z,97898.40
2019-03-04T03:06:58.063Z,97897.33
2019-03-04T03:09:27.635Z,97880.00
2019-03-04T03:11:56.888Z,97835.72
2019-03-04T03:14:26.441Z,97838.92
2019-03-04T03:16:55.731Z,97841.16
2019-03-04T03:19:25.034Z,97815.83
2019-03-04T03:21:54.229Z,97800.00
2019-03-04T03:24:23.448Z,97815.89
2019-03-04T03:26:54.895Z,97806.46
2019-03-04T03:29:24.116Z,97819.50
2019-03-04T03:31:53.337Z,97786.27
2019-03-04T03:34:22.561Z,97784.65
2019-03-04T03:36:51.815Z,97781.38
2019-03-04T03:39:20.998Z,97767.86
2019-03-04T03:41:50.222Z,97746.00
2019-03-04T03:44:19.421Z,97760.38
2019-03-04T03:46:48.649Z,97765.56
2019-03-04T03:49:17.840Z,97757.56
2019-03-04T03:51:47.110Z,97781.71
2019-03-04T03:54:16.398Z,97789.77
2019-03-04T03:56:45.609Z,97805.68
2019-03-04T03:59:14.839Z,97758.76
2019-03-04T04:01:44.069Z,97754.55
2019-03-04T04:04:13.259Z,97712.75
2019-03-04T04:06:42.489Z,97705.61
2019-03-04T04:09:11.733Z,97681.20
2019-03-04T04:11:41.205Z,97628.34
2019-03-04T04:14:10.432Z,97619.50
2019-03-04T04:16:39.674Z,97574.30
2019-03-04T04:19:09.139Z,97588.27
2019-03-04T04:21:38.825Z,97629.66
2019-03-04T04:24:08.002Z,97607.74
2019-03-04T04:26:37.236Z,97587.92
2019-03-04T04:29:11.585Z,97579.39
2019-03-04T04:34:17.026Z,97611.44
2019-03-04T04:36:46.288Z,97616.02
2019-03-04T04:39:15.498Z,97611.55
2019-03-04T04:41:44.708Z,97624.48
2019-03-04T04:44:13.906Z,97624.16
2019-03-04T04:47:25.762Z,97601.35
2019-03-04T04:49:54.996Z,97594.47
2019-03-04T04:52:24.267Z,97585.86
2019-03-04T04:54:53.454Z,97572.36
2019-03-04T04:57:22.924Z,97568.45
2019-03-04T04:59:52.132Z,97575.77
2019-03-04T05:02:21.624Z,97554.99
2019-03-04T05:04:50.838Z,97556.48
2019-03-04T05:07:20.072Z,97542.19
2019-03-04T05:09:49.396Z,97524.74
2019-03-04T05:12:18.607Z,97539.19
2019-03-04T05:14:47.804Z,97545.01
2019-03-04T05:17:17.032Z,97535.18
2019-03-04T05:19:46.519Z,97534.55
2019-03-04T05:22:15.730Z,97527.73
2019-03-04T05:24:44.981Z,97543.01
2019-03-04T05:27:14.196Z,97548.27
2019-03-04T05:29:43.430Z,97531.59
2019-03-04T05:32:12.626Z,97512.83
2019-03-04T05:34:41.858Z,97541.99
2019-03-04T05:37:11.095Z,97558.08
2019-03-04T05:39:40.301Z,97544.91
2019-03-04T05:42:09.789Z,97565.03
2019-03-04T05:44:39.021Z,97523.45
2019-03-04T05:47:08.238Z,97522.38
2019-03-04T05:49:37.833Z,97543.23
2019-03-04T05:52:07.064Z,97523.98
2019-03-04T05:54:36.282Z,97518.86
2019-03-04T05:57:05.578Z,97557.94
2019-03-04T05:59:35.117Z,97567.65
2019-03-04T06:02:23.678Z,97586.77
2019-03-04T06:04:52.942Z,97578.80
2019-03-04T06:07:41.119Z,97598.98
2019-03-04T06:10:30.799Z,97551.31
2019-03-04T06:13:00.431Z,97546.20
2019-03-04T06:15:30.427Z,97572.22
2019-03-04T06:17:59.969Z,97538.23
2019-03-04T06:20:29.404Z,97542.69
2019-03-04T06:22:59.128Z,97536.06
2019-03-04T06:30:45.100Z,97531.84
2019-03-04T06:33:14.332Z,97531.33
2019-03-04T06:35:43.604Z,97538.56
2019-03-04T06:38:12.917Z,97545.13
2019-03-04T06:40:42.465Z,97495.57
2019-03-04T06:43:11.679Z,97536.17
2019-03-04T06:45:40.934Z,97539.89
2019-03-04T06:48:10.129Z,97523.00
2019-03-04T06:50:58.436Z,97523.08
2019-03-04T06:54:05.765Z,97574.57
2019-03-04T06:56:59.377Z,97589.52
2019-03-04T06:59:38.373Z,97576.28
2019-03-04T07:02:11.290Z,97571.45
2019-03-04T07:05:04.290Z,97570.44
2019-03-04T07:07:34.587Z,97578.48
2019-03-04T07:10:04.279Z,97585.13
2019-03-04T07:12:33.524Z,97581.80
2019-03-04T07:17:37.200Z,97628.66
2019-03-04T07:20:10.427Z,97623.87
2019-03-04T07:23:00.250Z,97636.80
2019-03-04T07:25:30.274Z,97607.75
2019-03-04T07:27:59.591Z,97633.08
2019-03-04T07:30:28.896Z,97677.39
2019-03-04T07:32:58.735Z,97675.72
2019-03-04T07:41:21.123Z,97667.35
2019-03-04T07:44:09.404Z,97630.91
2019-03-04T07:46:39.056Z,97661.16
2019-03-04T07:49:08.355Z,97653.35
2019-03-04T07:51:37.832Z,97661.91
2019-03-04T07:54:07.109Z,97645.56
2019-03-04T07:56:36.700Z,97656.33
2019-03-04T07:59:12.892Z,97659.66
2019-03-04T08:01:42.596Z,97664.46
2019-03-04T08:04:11.878Z,97650.98
2019-03-04T08:06:41.199Z,97660.77
2019-03-04T08:09:48.566Z,97662.00
2019-03-04T08:12:55.877Z,97645.12
2019-03-04T08:15:26.453Z,97671.20
2019-03-04T08:20:55.899Z,97674.88
2019-03-04T08:23:25.493Z,97685.84
2019-03-04T08:25:54.713Z,97706.83
2019-03-04T08:28:24.018Z,97699.03
2019-03-04T08:30:53.238Z,97707.87
2019-03-04T08:33:22.507Z,97712.52
2019-03-04T08:35:51.726Z,97706.02
2019-03-04T08:38:20.981Z,97704.89
2019-03-04T08:40:50.205Z,97704.99
2019-03-04T08:43:19.626Z,97708.67
2019-03-04T08:45:49.688Z,97710.09
2019-03-04T08:48:19.205Z,97721.78
2019-03-04T08:50:48.865Z,97719.17
2019-03-04T08:53:18.150Z,97704.63
2019-03-04T08:55:47.396Z,97717.68
2019-03-04T08:58:18.956Z,97729.55
2019-03-04T09:00:48.301Z,97740.71
2019-03-04T09:03:17.573Z,97740.55
2019-03-04T09:05:46.893Z,97729.13
2019-03-04T09:08:16.479Z,97736.94
2019-03-04T09:10:46.696Z,97738.17
2019-03-04T09:13:15.994Z,97751.86
2019-03-04T09:15:45.623Z,97746.50
2019-03-04T09:18:15.019Z,97755.98
2019-03-04T09:20:44.871Z,97744.14
2019-03-04T09:23:14.641Z,97753.95
2019-03-04T09:25:47.194Z,97751.73
2019-03-04T09:28:16.747Z,97742.98
2019-03-04T09:30:45.990Z,97729.84
2019-03-04T09:33:15.580Z,97739.84
2019-03-04T09:38:55.314Z,97740.23
2019-03-04T09:41:24.687Z,97713.87
2019-03-04T09:43:54.371Z,97756.32
2019-03-04T09:46:23.831Z,97767.81
2019-03-04T09:48:53.691Z,97752.84
2019-03-04T09:51:24.623Z,97749.56
2019-03-04T09:53:54.485Z,97737.83
2019-03-04T09:56:26.220Z,97758.13
2019-03-04T09:58:55.462Z,97748.70
2019-03-04T10:01:48.799Z,97761.51
2019-03-04T10:04:56.488Z,97749.42
2019-03-04T10:08:03.794Z,97748.98
2019-03-04T10:14:19.012Z,97715.13
2019-03-04T10:17:26.288Z,97711.27
2019-03-04T10:20:33.865Z,97708.30
2019-03-04T10:23:41.247Z,97709.83
2019-03-04T10:26:48.518Z,97720.94
2019-03-04T10:29:55.922Z,97703.98
2019-03-04T10:32:51.083Z,97709.36
2019-03-04T10:35:58.370Z,97698.91
2019-03-04T10:39:05.968Z,97707.16
2019-03-04T10:41:58.649Z,97712.48
2019-03-04T10:45:05.942Z,97711.16
2019-03-04T10:47:35.219Z,97696.23
2019-03-04T10:53:00.191Z,97705.06
2019-03-04T10:55:29.924Z,97649.91
2019-03-04T10:57:59.120Z,97705.33
2019-03-04T11:00:28.396Z,97688.61
2019-03-04T11:02:57.652Z,97725.68
2019-03-04T11:05:27.029Z,97721.97
2019-03-04T11:07:56.617Z,97717.13
2019-03-04T11:10:26.156Z,97728.47
2019-03-04T11:12:55.711Z,97721.37
2019-03-04T11:15:25.650Z,97726.34
2019-03-04T11:17:54.862Z,97735.11
2019-03-04T11:20:24.416Z,97728.47
2019-03-04T11:22:53.951Z,97741.48
2019-03-04T11:25:23.696Z,97738.94
2019-03-04T11:27:53.887Z,97737.14
2019-03-04T11:33:18.699Z,97712.83
2019-03-04T11:35:48.186Z,97713.85
2019-03-04T11:38:59.414Z,97734.45
2019-03-04T11:44:23.653Z,97741.94
2019-03-04T11:46:52.899Z,97735.45
2019-03-04T11:49:22.123Z,97750.30
2019-03-04T11:51:51.425Z,97756.30
2019-03-04T11:54:21.016Z,97762.25
2019-03-04T11:56:50.527Z,97771.47
2019-03-04T11:59:20.680Z,97779.02
2019-03-04T12:01:50.135Z,97778.42
2019-03-04T12:04:19.670Z,97803.59
2019-03-04T12:07:28.293Z,97832.68
2019-03-04T12:09:58.002Z,97769.40
2019-03-04T12:12:27.648Z,97770.50
2019-03-04T12:14:57.014Z,97775.57
2019-03-04T12:17:26.579Z,97791.98
2019-03-04T12:19:56.083Z,97800.44
2019-03-04T12:22:28.028Z,97820.11
2019-03-04T12:25:13.917Z,97839.45
2019-03-04T12:27:43.380Z,97837.48
2019-03-04T12:30:20.943Z,97849.88
2019-03-04T12:33:11.423Z,97852.52
2019-03-04T12:36:05.288Z,97832.08
2019-03-04T12:38:34.773Z,97833.31
2019-03-04T12:41:04.343Z,97836.00
2019-03-04T12:43:55.389Z,97864.16
2019-03-04T12:46:28.402Z,97843.63
2019-03-04T12:48:57.722Z,97849.06
2019-03-04T12:51:44.975Z,97784.67
2019-03-04T12:54:28.535Z,97852.25
2019-03-04T13:05:09.038Z,97859.20
2019-03-04T13:07:38.839Z,97876.30
2019-03-04T13:12:56.557Z,97873.02
2019-03-04T13:15:26.180Z,97867.24
2019-03-04T13:17:55.431Z,97887.38
2019-03-04T13:20:25.522Z,97889.16
2019-03-04T13:22:54.744Z,97888.73
2019-03-04T13:25:24.320Z,97900.30
2019-03-04T13:27:53.751Z,97901.77
2019-03-04T13:30:43.798Z,97895.15
2019-03-04T13:33:13.421Z,97906.66
2019-03-04T13:35:42.633Z,97898.03
2019-03-04T13:38:11.867Z,97896.98
2019-03-04T13:40:41.104Z,97908.05
2019-03-04T13:43:10.312Z,97912.81
2019-03-04T13:45:39.656Z,97915.51
2019-03-04T13:48:09.154Z,97931.40
2019-03-04T13:50:39.007Z,97929.42
2019-03-04T13:53:08.603Z,97947.14
2019-03-04T13:58:12.912Z,97952.80
2019-03-04T14:00:42.463Z,97969.14
2019-03-04T14:03:12.807Z,97976.26
2019-03-04T14:05:42.374Z,97996.50
2019-03-04T14:08:11.597Z,98005.05
2019-03-04T14:10:40.837Z,98010.81
2019-03-04T14:13:30.405Z,98000.47
2019-03-04T14:15:59.972Z,98016.36
2019-03-04T14:18:29.395Z,98030.88
2019-03-04T14:20:58.627Z,98046.33
2019-03-04T14:23:27.892Z,98052.95
2019-03-04T14:25:57.539Z,98067.92
2019-03-04T14:28:28.374Z,98074.13
2019-03-04T14:30:57.667Z,98066.06
2019-03-04T14:33:26.956Z,98083.12
2019-03-04T14:35:56.240Z,98070.58
2019-03-04T14:38:25.491Z,98099.97
2019-03-04T14:41:13.848Z,98102.13
2019-03-04T14:43:43.082Z,98112.58
2019-03-04T14:46:56.742Z,98101.63
2019-03-04T14:49:25.999Z,98121.52
2019-03-04T14:51:55.326Z,98118.86
2019-03-04T14:54:24.568Z,98143.33
2019-03-04T14:56:53.894Z,98148.84
2019-03-04T14:59:23.442Z,98154.34
2019-03-04T15:01:52.742Z,98158.96
2019-03-04T15:04:21.975Z,98162.96
2019-03-04T15:06:51.601Z,98161.07
2019-03-04T15:09:20.934Z,98174.04
2019-03-04T15:11:50.232Z,98189.23
2019-03-04T15:14:20.234Z,98161.07
2019-03-04T15:16:49.494Z,98199.60
2019-03-04T15:19:19.068Z,98213.60
2019-03-04T15:21:49.247Z,98214.62
2019-03-04T15:24:38.468Z,98230.30
2019-03-04T15:27:07.981Z,98222.79
2019-03-04T15:33:25.252Z,98254.55
2019-03-04T15:35:54.842Z,98256.31
2019-03-04T15:38:24.104Z,98293.53
2019-03-04T15:40:53.361Z,98277.47
2019-03-04T15:43:26.940Z,98316.09
2019-03-04T15:45:56.801Z,98308.87
2019-03-04T15:48:28.574Z,98317.69
2019-03-04T15:50:58.270Z,98326.09
2019-03-04T15:53:27.565Z,98340.28
2019-03-04T15:55:57.062Z,98329.45
2019-03-04T15:58:26.426Z,98356.70
2019-03-04T16:00:56.013Z,98362.20
2019-03-04T16:03:25.330Z,98379.05
2019-03-04T16:05:54.911Z,98361.91
2019-03-04T16:08:24.189Z,98387.63
2019-03-04T16:10:53.382Z,98393.25
2019-03-04T16:13:22.772Z,98386.15
2019-03-04T16:15:51.975Z,98409.70
2019-03-04T16:18:21.302Z,98392.16
2019-03-04T16:20:50.544Z,98421.20
2019-03-04T16:23:20.282Z,98412.23
2019-03-04T16:25:49.820Z,98405.99
2019-03-04T16:28:21.426Z,98441.92
2019-03-04T16:30:51.408Z,98430.22
2019-03-04T16:33:20.678Z,98425.13
2019-03-04T16:35:52.293Z,98444.69
2019-03-04T16:38:40.622Z,98449.14
2019-03-04T16:41:09.833Z,98446.33
2019-03-04T16:43:39.153Z,98450.49
2019-03-04T16:46:08.386Z,98456.80
2019-03-04T16:48:37.922Z,98461.71
2019-03-04T16:51:07.447Z,98438.25
2019-03-04T16:53:36.787Z,98461.56
2019-03-04T16:56:06.073Z,98460.52
2019-03-04T16:58:35.470Z,98464.03
2019-03-04T17:01:04.978Z,98465.41
2019-03-04T17:03:34.993Z,98470.27
2019-03-04T17:06:05.038Z,98472.75
2019-03-04T17:08:38.478Z,98473.29
2019-03-04T17:11:07.734Z,98471.94
2019-03-04T17:13:37.022Z,98472.54
2019-03-04T17:16:06.240Z,98479.02
2019-03-04T17:18:35.493Z,98483.36
2019-03-04T17:21:04.700Z,98488.52
2019-03-04T17:23:34.051Z,98482.84
2019-03-04T17:26:03.696Z,98484.48
2019-03-04T17:28:32.970Z,98490.70
2019-03-04T17:31:02.743Z,98483.97
2019-03-04T17:33:32.035Z,98480.73
2019-03-04T17:52:00.099Z,98516.09
2019-03-04T17:54:30.345Z,98504.95
2019-03-04T17:56:59.832Z,98517.68
2019-03-04T17:59:29.578Z,98527.37
2019-03-04T18:02:01.584Z,98533.88
2019-03-04T18:07:07.418Z,98544.71
2019-03-04T18:09:38.019Z,98524.20
2019-03-04T18:12:35.828Z,98545.48
2019-03-04T18:15:14.482Z,98554.93
2019-03-04T18:23:29.328Z,98564.95
2019-03-04T18:26:36.648Z,98564.91
2019-03-04T18:32:38.960Z,98583.30
2019-03-04T18:35:46.529Z,98585.45
2019-03-04T18:38:56.272Z,98584.92
2019-03-04T18:42:03.565Z,98594.36
2019-03-04T18:48:09.326Z,98611.63
2019-03-04T18:50:38.575Z,98612.98
2019-03-04T18:53:08.562Z,98607.05
2019-03-04T18:55:50.141Z,98606.23
2019-03-04T18:58:19.846Z,98607.31
2019-03-04T19:00:49.501Z,98611.07
2019-03-04T19:03:18.692Z,98618.09
2019-03-04T19:05:48.970Z,98612.97
2019-03-04T19:08:18.228Z,98620.23
2019-03-04T19:11:10.536Z,98619.95
2019-03-04T19:16:28.283Z,98622.64
2019-03-04T19:18:58.893Z,98618.87
2019-03-04T19:21:28.522Z,98626.94
2019-03-04T19:24:16.818Z,98626.92
2019-03-04T19:26:46.106Z,98618.85
2019-03-04T19:29:15.443Z,98619.12
2019-03-04T19:31:45.025Z,98622.07
2019-03-04T19:34:14.879Z,98617.21
2019-03-04T19:58:45.656Z,98616.59
2019-03-04T20:01:15.498Z,98618.50
2019-03-04T20:03:44.927Z,98613.64
2019-03-04T20:06:14.194Z,98613.90
2019-03-04T20:08:43.531Z,98611.49
2019-03-04T20:11:12.909Z,98615.04
2019-03-04T20:13:42.477Z,98618.00
2019-03-04T20:16:12.451Z,98614.50
2019-03-04T20:18:41.782Z,98617.47
2019-03-04T20:21:11.410Z,98624.48
2019-03-04T20:23:40.936Z,98630.69
2019-03-04T20:26:10.149Z,98632.87
2019-03-04T20:28:39.376Z,98629.66
2019-03-04T20:31:29.428Z,98642.34
2019-03-04T20:33:58.934Z,98647.45
2019-03-04T20:36:28.243Z,98653.41
2019-03-04T20:38:58.188Z,98654.22
2019-03-04T20:41:27.422Z,98654.73
2019-03-04T20:43:56.690Z,98650.69
2019-03-04T20:46:25.933Z,98649.09
2019-03-04T20:48:55.224Z,98655.55
2019-03-04T20:51:24.690Z,98660.41
2019-03-04T20:53:54.066Z,98670.08
2019-03-04T20:56:23.547Z,98656.88
2019-03-04T20:58:53.141Z,98654.19
2019-03-04T21:04:12.346Z,98667.37
2019-03-04T21:06:41.640Z,98654.69
2019-03-04T21:09:50.587Z,98656.05
2019-03-04T21:12:19.887Z,98655.78
2019-03-04T21:14:49.241Z,98651.49
2019-03-04T21:17:18.457Z,98648.80
2019-03-04T21:19:47.704Z,98648.80
2019-03-04T21:22:16.977Z,98658.48
2019-03-04T21:24:46.218Z,98654.97
2019-03-04T21:27:15.458Z,98652.84
2019-03-04T21:30:22.778Z,98666.83
2019-03-04T21:33:01.477Z,98647.43
2019-03-04T21:36:08.780Z,98647.16
2019-03-04T21:38:37.992Z,98652.02
2019-03-04T21:41:28.250Z,98647.98
2019-03-04T21:44:35.885Z,98650.93
2019-03-04T21:47:11.456Z,98632.62
2019-03-04T21:53:00.834Z,98673.92
2019-03-04T21:56:09.704Z,98665.53
2019-03-04T21:58:39.290Z,98687.40
2019-03-04T22:04:32.321Z,98698.73
2019-03-04T22:07:01.637Z,98698.19
2019-03-04T22:09:30.951Z,98707.06
2019-03-04T22:12:00.874Z,98708.13
2019-03-04T22:14:30.447Z,98715.42
2019-03-04T22:16:59.943Z,98734.56
2019-03-04T22:19:29.166Z,98739.40
2019-03-04T22:21:58.519Z,98746.17
2019-03-04T22:24:27.728Z,98750.46
2019-03-04T22:26:57.014Z,98758.31
2019-03-04T22:29:26.231Z,98763.66
2019-03-04T22:31:55.436Z,98780.66
2019-03-04T22:34:24.904Z,98784.41
2019-03-04T22:36:54.410Z,98788.69
2019-03-04T22:39:24.015Z,98758.28
2019-03-04T22:41:53.466Z,98799.80
2019-03-04T22:44:22.670Z,98792.23
2019-03-04T22:49:29.501Z,98800.27
2019-03-04T22:52:02.472Z,98806.47
2019-03-04T22:54:32.972Z,98812.66
2019-03-04T22:57:03.336Z,98818.09
2019-03-04T22:59:33.196Z,98807.89
2019-03-04T23:02:05.773Z,98809.23
2019-03-04T23:04:58.964Z,98807.06
2019-03-04T23:10:54.009Z,98817.84
2019-03-04T23:20:14.708Z,98827.98
2019-03-04T23:22:47.180Z,98815.31
2019-03-04T23:25:19.222Z,98821.30
2019-03-04T23:28:10.820Z,98826.69
2019-03-04T23:34:02.547Z,98830.94
2019-03-04T23:36:32.176Z,98835.74
2019-03-04T23:39:01.633Z,98836.31
2019-03-04T23:41:30.861Z,98835.47
2019-03-04T23:44:02.206Z,98829.80
2019-03-04T23:46:57.222Z,98827.77
2019-03-04T23:49:27.050Z,98802.66
2019-03-04T23:51:59.466Z,98804.77
2019-03-04T23:54:31.938Z,98807.47
2019-03-04T23:57:01.177Z,98819.35
2019-03-04T23:59:30.577Z,98815.77
